sensor_id;sensor_type;location;lat;lon;timestamp;pressure;altitude;pressure_sealevel;temperature;humidity
6942;BME280;3510;43.200;27.920;2023-01-06T00:01:09;100771.38;;;17.73;37.65
6942;BME280;3510;43.200;27.920;2023-01-06T00:03:36;100806.50;;;17.63;38.28
6942;BME280;3510;43.200;27.920;2023-01-06T00:06:05;100792.47;;;17.55;38.33
6942;BME280;3510;43.200;27.920;2023-01-06T00:08:33;100805.09;;;17.54;38.38
6942;BME280;3510;43.200;27.920;2023-01-06T00:11:04;100767.84;;;17.39;38.24
6942;BME280;3510;43.200;27.920;2023-01-06T00:13:31;100801.56;;;17.21;38.64
6942;BME280;3510;43.200;27.920;2023-01-06T00:16:04;100816.00;;;17.51;38.18
6942;BME280;3510;43.200;27.920;2023-01-06T00:18:31;100813.28;;;17.48;38.28
6942;BME280;3510;43.200;27.920;2023-01-06T00:20:58;100838.38;;;17.27;38.77
6942;BME280;3510;43.200;27.920;2023-01-06T00:23:27;100844.88;;;17.52;38.51
6942;BME280;3510;43.200;27.920;2023-01-06T00:25:54;100852.25;;;17.62;38.52
6942;BME280;3510;43.200;27.920;2023-01-06T00:28:21;100857.13;;;17.00;39.67
6942;BME280;3510;43.200;27.920;2023-01-06T00:30:48;100785.59;;;16.65;39.27
6942;BME280;3510;43.200;27.920;2023-01-06T00:33:17;100884.16;;;17.42;39.01
6942;BME280;3510;43.200;27.920;2023-01-06T00:35:44;100821.41;;;16.83;39.65
6942;BME280;3510;43.200;27.920;2023-01-06T00:38:11;100822.56;;;16.88;39.08
6942;BME280;3510;43.200;27.920;2023-01-06T00:40:38;100867.50;;;17.47;38.78
6942;BME280;3510;43.200;27.920;2023-01-06T00:43:05;100872.41;;;16.58;40.52
6942;BME280;3510;43.200;27.920;2023-01-06T00:45:32;100839.59;;;17.04;39.27
6942;BME280;3510;43.200;27.920;2023-01-06T00:47:59;100854.56;;;16.72;39.93
6942;BME280;3510;43.200;27.920;2023-01-06T00:50:28;100890.13;;;17.28;39.49
6942;BME280;3510;43.200;27.920;2023-01-06T00:52:55;100859.66;;;17.00;39.83
6942;BME280;3510;43.200;27.920;2023-01-06T00:55:22;100846.25;;;16.87;39.99
6942;BME280;3510;43.200;27.920;2023-01-06T00:57:50;100891.59;;;17.24;39.90
6942;BME280;3510;43.200;27.920;2023-01-06T01:00:18;100880.81;;;17.13;40.06
6942;BME280;3510;43.200;27.920;2023-01-06T01:02:45;100891.28;;;16.90;40.46
6942;BME280;3510;43.200;27.920;2023-01-06T01:05:13;100806.91;;;16.39;40.41
6942;BME280;3510;43.200;27.920;2023-01-06T01:07:41;100838.16;;;16.80;40.43
6942;BME280;3510;43.200;27.920;2023-01-06T01:10:09;100891.63;;;16.81;40.71
6942;BME280;3510;43.200;27.920;2023-01-06T01:12:36;100764.63;;;15.99;40.75
6942;BME280;3510;43.200;27.920;2023-01-06T01:15:04;100867.97;;;16.69;40.79
6942;BME280;3510;43.200;27.920;2023-01-06T01:17:31;100843.66;;;16.59;40.62
6942;BME280;3510;43.200;27.920;2023-01-06T01:19:58;100849.16;;;16.24;41.23
6942;BME280;3510;43.200;27.920;2023-01-06T01:22:27;100902.28;;;16.76;41.10
6942;BME280;3510;43.200;27.920;2023-01-06T01:24:56;100916.56;;;16.60;41.22
6942;BME280;3510;43.200;27.920;2023-01-06T01:27:23;100909.13;;;16.77;41.03
6942;BME280;3510;43.200;27.920;2023-01-06T01:29:51;100932.22;;;16.80;40.98
6942;BME280;3510;43.200;27.920;2023-01-06T01:32:18;100928.34;;;16.86;40.94
6942;BME280;3510;43.200;27.920;2023-01-06T01:34:45;100891.84;;;16.58;40.76
6942;BME280;3510;43.200;27.920;2023-01-06T01:37:12;100899.72;;;16.76;41.23
6942;BME280;3510;43.200;27.920;2023-01-06T01:39:40;100928.38;;;17.29;40.29
6942;BME280;3510;43.200;27.920;2023-01-06T01:42:14;100898.63;;;17.13;40.27
6942;BME280;3510;43.200;27.920;2023-01-06T01:45:03;100929.91;;;17.12;40.43
6942;BME280;3510;43.200;27.920;2023-01-06T01:47:42;100910.09;;;16.79;40.99
6942;BME280;3510;43.200;27.920;2023-01-06T01:50:22;100892.31;;;16.65;41.21
6942;BME280;3510;43.200;27.920;2023-01-06T01:52:52;100936.56;;;16.82;41.26
6942;BME280;3510;43.200;27.920;2023-01-06T01:55:20;100910.53;;;16.45;41.69
6942;BME280;3510;43.200;27.920;2023-01-06T01:57:51;100915.72;;;16.33;42.38
6942;BME280;3510;43.200;27.920;2023-01-06T02:00:20;100943.56;;;17.00;41.21
6942;BME280;3510;43.200;27.920;2023-01-06T02:02:47;100953.97;;;17.17;40.89
6942;BME280;3510;43.200;27.920;2023-01-06T02:05:19;100919.91;;;16.46;41.67
6942;BME280;3510;43.200;27.920;2023-01-06T02:07:48;100950.38;;;16.59;41.92
6942;BME280;3510;43.200;27.920;2023-01-06T02:10:17;100955.75;;;16.77;41.81
6942;BME280;3510;43.200;27.920;2023-01-06T02:12:45;100972.06;;;16.67;41.98
6942;BME280;3510;43.200;27.920;2023-01-06T02:15:17;100957.91;;;16.58;41.94
6942;BME280;3510;43.200;27.920;2023-01-06T02:20:57;100930.84;;;16.45;42.34
6942;BME280;3510;43.200;27.920;2023-01-06T02:24:05;100960.19;;;16.40;42.63
6942;BME280;3510;43.200;27.920;2023-01-06T02:33:09;100935.06;;;16.31;42.17
6942;BME280;3510;43.200;27.920;2023-01-06T02:36:00;100936.97;;;16.20;42.72
6942;BME280;3510;43.200;27.920;2023-01-06T02:38:40;100971.47;;;16.72;42.07
6942;BME280;3510;43.200;27.920;2023-01-06T02:41:20;100950.41;;;16.33;42.71
6942;BME280;3510;43.200;27.920;2023-01-06T02:43:57;100923.84;;;16.01;42.92
6942;BME280;3510;43.200;27.920;2023-01-06T02:46:39;100952.94;;;16.19;43.24
6942;BME280;3510;43.200;27.920;2023-01-06T02:49:16;100924.81;;;16.16;42.66
6942;BME280;3510;43.200;27.920;2023-01-06T02:51:50;100950.88;;;15.74;43.90
6942;BME280;3510;43.200;27.920;2023-01-06T02:54:28;100970.72;;;15.93;43.77
6942;BME280;3510;43.200;27.920;2023-01-06T02:57:03;100950.91;;;16.01;43.41
6942;BME280;3510;43.200;27.920;2023-01-06T02:59:34;100955.84;;;15.47;44.13
6942;BME280;3510;43.200;27.920;2023-01-06T03:02:03;100929.69;;;15.87;43.27
6942;BME280;3510;43.200;27.920;2023-01-06T03:04:35;100938.09;;;15.72;43.99
6942;BME280;3510;43.200;27.920;2023-01-06T03:07:05;100977.31;;;15.53;44.53
6942;BME280;3510;43.200;27.920;2023-01-06T03:09:34;100923.69;;;15.60;43.74
6942;BME280;3510;43.200;27.920;2023-01-06T03:12:07;100977.31;;;15.78;43.82
6942;BME280;3510;43.200;27.920;2023-01-06T03:14:40;100983.38;;;15.55;44.19
6942;BME280;3510;43.200;27.920;2023-01-06T03:17:09;100971.00;;;15.97;43.72
6942;BME280;3510;43.200;27.920;2023-01-06T03:19:37;100983.63;;;15.46;45.01
6942;BME280;3510;43.200;27.920;2023-01-06T03:22:06;100932.50;;;15.40;44.44
6942;BME280;3510;43.200;27.920;2023-01-06T03:24:34;100974.41;;;15.35;44.44
6942;BME280;3510;43.200;27.920;2023-01-06T03:27:02;100990.53;;;15.35;44.89
6942;BME280;3510;43.200;27.920;2023-01-06T03:29:29;100994.72;;;15.85;44.14
6942;BME280;3510;43.200;27.920;2023-01-06T03:32:00;100955.50;;;15.30;44.92
6942;BME280;3510;43.200;27.920;2023-01-06T03:34:42;100999.41;;;15.92;44.04
6942;BME280;3510;43.200;27.920;2023-01-06T03:37:17;100969.72;;;15.53;44.62
6942;BME280;3510;43.200;27.920;2023-01-06T03:39:56;100898.91;;;15.31;44.06
6942;BME280;3510;43.200;27.920;2023-01-06T03:42:28;100980.56;;;15.38;44.76
6942;BME280;3510;43.200;27.920;2023-01-06T03:45:33;100952.38;;;15.34;44.68
6942;BME280;3510;43.200;27.920;2023-01-06T03:48:09;100993.88;;;15.22;45.28
6942;BME280;3510;43.200;27.920;2023-01-06T03:50:41;100999.91;;;15.36;45.46
6942;BME280;3510;43.200;27.920;2023-01-06T03:53:17;101009.66;;;15.80;44.28
6942;BME280;3510;43.200;27.920;2023-01-06T03:55:53;101006.19;;;15.66;44.66
6942;BME280;3510;43.200;27.920;2023-01-06T03:58:25;100989.84;;;15.38;44.81
6942;BME280;3510;43.200;27.920;2023-01-06T04:00:55;101027.66;;;15.71;44.63
6942;BME280;3510;43.200;27.920;2023-01-06T04:03:23;101035.63;;;15.28;45.17
6942;BME280;3510;43.200;27.920;2023-01-06T04:05:53;101033.09;;;15.28;45.11
6942;BME280;3510;43.200;27.920;2023-01-06T04:08:20;101009.13;;;15.61;44.61
6942;BME280;3510;43.200;27.920;2023-01-06T04:10:47;101018.84;;;15.05;45.66
6942;BME280;3510;43.200;27.920;2023-01-06T04:13:14;101007.91;;;15.17;45.58
6942;BME280;3510;43.200;27.920;2023-01-06T04:15:40;100988.28;;;14.78;45.81
6942;BME280;3510;43.200;27.920;2023-01-06T04:18:07;101022.41;;;15.68;45.02
6942;BME280;3510;43.200;27.920;2023-01-06T04:20:34;100987.75;;;15.07;46.02
6942;BME280;3510;43.200;27.920;2023-01-06T04:23:02;101009.38;;;14.90;46.33
6942;BME280;3510;43.200;27.920;2023-01-06T04:25:29;101016.34;;;14.93;46.41
6942;BME280;3510;43.200;27.920;2023-01-06T04:27:56;100992.91;;;14.84;45.97
6942;BME280;3510;43.200;27.920;2023-01-06T04:30:23;101010.88;;;15.12;45.98
6942;BME280;3510;43.200;27.920;2023-01-06T04:32:50;101043.72;;;15.22;45.50
6942;BME280;3510;43.200;27.920;2023-01-06T04:35:17;100978.66;;;14.86;45.79
6942;BME280;3510;43.200;27.920;2023-01-06T04:37:44;101053.47;;;14.92;46.00
6942;BME280;3510;43.200;27.920;2023-01-06T04:40:13;101031.69;;;15.19;45.83
6942;BME280;3510;43.200;27.920;2023-01-06T04:42:40;101076.50;;;15.44;45.47
6942;BME280;3510;43.200;27.920;2023-01-06T04:45:26;101045.94;;;15.17;45.59
6942;BME280;3510;43.200;27.920;2023-01-06T04:47:53;101034.53;;;14.99;46.01
6942;BME280;3510;43.200;27.920;2023-01-06T04:50:20;101059.38;;;15.16;45.66
6942;BME280;3510;43.200;27.920;2023-01-06T04:52:47;101054.25;;;14.91;46.34
6942;BME280;3510;43.200;27.920;2023-01-06T04:55:15;101023.09;;;14.81;46.01
6942;BME280;3510;43.200;27.920;2023-01-06T04:57:43;101036.19;;;14.75;46.48
6942;BME280;3510;43.200;27.920;2023-01-06T05:00:11;101054.16;;;15.27;45.77
6942;BME280;3510;43.200;27.920;2023-01-06T05:02:38;100996.09;;;14.46;46.33
6942;BME280;3510;43.200;27.920;2023-01-06T05:05:06;101023.06;;;14.92;46.12
6942;BME280;3510;43.200;27.920;2023-01-06T05:07:33;101081.25;;;14.91;46.41
6942;BME280;3510;43.200;27.920;2023-01-06T05:10:00;101080.59;;;14.82;46.81
6942;BME280;3510;43.200;27.920;2023-01-06T05:12:30;101029.84;;;14.68;46.44
6942;BME280;3510;43.200;27.920;2023-01-06T05:14:57;101004.81;;;14.49;45.77
6942;BME280;3510;43.200;27.920;2023-01-06T05:17:24;101049.03;;;15.13;45.38
6942;BME280;3510;43.200;27.920;2023-01-06T05:19:51;101079.47;;;14.90;46.01
6942;BME280;3510;43.200;27.920;2023-01-06T05:22:18;101029.88;;;14.35;46.81
6942;BME280;3510;43.200;27.920;2023-01-06T05:24:45;101068.22;;;15.10;45.80
6942;BME280;3510;43.200;27.920;2023-01-06T05:27:12;101039.28;;;14.94;46.13
6942;BME280;3510;43.200;27.920;2023-01-06T05:29:41;101054.31;;;15.05;45.97
6942;BME280;3510;43.200;27.920;2023-01-06T05:32:08;101041.34;;;15.00;45.76
6942;BME280;3510;43.200;27.920;2023-01-06T05:34:49;101037.16;;;15.00;45.60
6942;BME280;3510;43.200;27.920;2023-01-06T05:37:30;101082.31;;;15.18;45.39
6942;BME280;3510;43.200;27.920;2023-01-06T05:39:57;101114.25;;;15.28;45.65
6942;BME280;3510;43.200;27.920;2023-01-06T05:42:37;101031.53;;;14.46;46.20
6942;BME280;3510;43.200;27.920;2023-01-06T05:45:08;101092.84;;;15.36;44.85
6942;BME280;3510;43.200;27.920;2023-01-06T05:47:35;101069.09;;;15.10;44.84
6942;BME280;3510;43.200;27.920;2023-01-06T05:50:16;101132.69;;;15.13;45.63
6942;BME280;3510;43.200;27.920;2023-01-06T05:52:43;101101.72;;;14.94;46.13
6942;BME280;3510;43.200;27.920;2023-01-06T05:55:10;101140.94;;;15.22;45.74
6942;BME280;3510;43.200;27.920;2023-01-06T05:57:37;101131.47;;;15.08;45.77
6942;BME280;3510;43.200;27.920;2023-01-06T06:09:38;101143.44;;;15.34;45.96
6942;BME280;3510;43.200;27.920;2023-01-06T06:12:06;101094.03;;;15.41;44.93
6942;BME280;3510;43.200;27.920;2023-01-06T06:14:47;101152.22;;;15.75;45.12
6942;BME280;3510;43.200;27.920;2023-01-06T06:17:14;101121.94;;;15.41;45.29
6942;BME280;3510;43.200;27.920;2023-01-06T06:19:55;101169.19;;;15.64;45.67
6942;BME280;3510;43.200;27.920;2023-01-06T06:22:21;101134.13;;;15.10;45.82
6942;BME280;3510;43.200;27.920;2023-01-06T06:28:16;101174.88;;;15.48;45.42
6942;BME280;3510;43.200;27.920;2023-01-06T06:30:42;101163.09;;;15.01;46.02
6942;BME280;3510;43.200;27.920;2023-01-06T06:33:23;101170.25;;;15.31;45.52
6942;BME280;3510;43.200;27.920;2023-01-06T06:35:55;101199.44;;;15.49;45.75
6942;BME280;3510;43.200;27.920;2023-01-06T06:38:22;101156.16;;;15.22;45.66
6942;BME280;3510;43.200;27.920;2023-01-06T06:40:49;101205.75;;;15.66;45.13
6942;BME280;3510;43.200;27.920;2023-01-06T06:43:32;101167.91;;;15.45;45.12
6942;BME280;3510;43.200;27.920;2023-01-06T06:45:59;101125.06;;;15.01;45.40
6942;BME280;3510;43.200;27.920;2023-01-06T06:48:27;101192.50;;;15.70;45.19
6942;BME280;3510;43.200;27.920;2023-01-06T06:50:56;101186.13;;;15.40;45.47
6942;BME280;3510;43.200;27.920;2023-01-06T06:53:23;101207.69;;;15.82;44.80
6942;BME280;3510;43.200;27.920;2023-01-06T06:55:50;101179.84;;;15.95;43.90
6942;BME280;3510;43.200;27.920;2023-01-06T06:58:17;101164.91;;;15.63;43.90
6942;BME280;3510;43.200;27.920;2023-01-06T07:00:50;101231.88;;;16.13;43.71
6942;BME280;3510;43.200;27.920;2023-01-06T07:03:17;101206.97;;;16.33;43.21
6942;BME280;3510;43.200;27.920;2023-01-06T07:05:46;101143.94;;;15.17;44.97
6942;BME280;3510;43.200;27.920;2023-01-06T07:08:14;101184.78;;;15.68;44.07
6942;BME280;3510;43.200;27.920;2023-01-06T07:10:41;101226.34;;;15.82;43.98
6942;BME280;3510;43.200;27.920;2023-01-06T07:13:08;101229.41;;;15.90;44.48
6942;BME280;3510;43.200;27.920;2023-01-06T07:18:18;101240.59;;;16.05;44.33
6942;BME280;3510;43.200;27.920;2023-01-06T07:20:47;101199.63;;;15.76;44.82
6942;BME280;3510;43.200;27.920;2023-01-06T07:23:17;101083.53;;;15.11;44.39
6942;BME280;3510;43.200;27.920;2023-01-06T07:25:45;101121.59;;;15.48;44.19
6942;BME280;3510;43.200;27.920;2023-01-06T07:28:14;101190.09;;;15.96;43.95
6942;BME280;3510;43.200;27.920;2023-01-06T07:30:44;101228.81;;;16.81;42.65
6942;BME280;3510;43.200;27.920;2023-01-06T07:33:12;101147.78;;;15.84;43.29
6942;BME280;3510;43.200;27.920;2023-01-06T07:35:46;101195.59;;;16.28;43.02
6942;BME280;3510;43.200;27.920;2023-01-06T07:38:14;101192.69;;;16.73;41.95
6942;BME280;3510;43.200;27.920;2023-01-06T07:40:41;101289.28;;;17.11;42.10
6942;BME280;3510;43.200;27.920;2023-01-06T07:43:10;101274.50;;;16.92;42.54
6942;BME280;3510;43.200;27.920;2023-01-06T07:45:37;101257.53;;;16.30;43.35
6942;BME280;3510;43.200;27.920;2023-01-06T07:48:04;101277.75;;;17.03;42.20
6942;BME280;3510;43.200;27.920;2023-01-06T07:50:32;101285.59;;;17.33;41.66
6942;BME280;3510;43.200;27.920;2023-01-06T07:53:01;101288.38;;;16.84;42.50
6942;BME280;3510;43.200;27.920;2023-01-06T07:55:30;101221.47;;;16.60;42.55
6942;BME280;3510;43.200;27.920;2023-01-06T07:57:57;101180.63;;;16.57;41.80
6942;BME280;3510;43.200;27.920;2023-01-06T08:00:24;101307.03;;;17.50;41.13
6942;BME280;3510;43.200;27.920;2023-01-06T08:02:52;101308.75;;;17.11;41.87
6942;BME280;3510;43.200;27.920;2023-01-06T08:05:19;101278.97;;;17.88;39.96
6942;BME280;3510;43.200;27.920;2023-01-06T08:07:46;101284.22;;;17.64;40.30
6942;BME280;3510;43.200;27.920;2023-01-06T08:10:18;101322.47;;;18.19;39.79
6942;BME280;3510;43.200;27.920;2023-01-06T08:12:46;101339.44;;;17.52;40.65
6942;BME280;3510;43.200;27.920;2023-01-06T08:15:14;101329.03;;;18.29;39.57
6942;BME280;3510;43.200;27.920;2023-01-06T08:17:41;101315.25;;;17.32;41.01
6942;BME280;3510;43.200;27.920;2023-01-06T08:20:09;101306.91;;;17.35;41.22
6942;BME280;3510;43.200;27.920;2023-01-06T08:22:41;101331.09;;;17.28;41.57
6942;BME280;3510;43.200;27.920;2023-01-06T08:25:08;101286.78;;;17.51;40.70
6942;BME280;3510;43.200;27.920;2023-01-06T08:27:37;101335.91;;;17.37;41.48
6942;BME280;3510;43.200;27.920;2023-01-06T08:30:05;101313.41;;;17.83;40.59
6942;BME280;3510;43.200;27.920;2023-01-06T08:32:32;101268.25;;;17.01;41.32
6942;BME280;3510;43.200;27.920;2023-01-06T08:35:00;101316.44;;;17.90;40.75
6942;BME280;3510;43.200;27.920;2023-01-06T08:37:27;101280.03;;;17.52;40.72
6942;BME280;3510;43.200;27.920;2023-01-06T08:39:54;101248.97;;;16.91;41.75
6942;BME280;3510;43.200;27.920;2023-01-06T08:42:21;101260.81;;;17.97;39.67
6942;BME280;3510;43.200;27.920;2023-01-06T08:45:05;101314.69;;;18.31;39.89
6942;BME280;3510;43.200;27.920;2023-01-06T08:47:32;101326.75;;;18.33;39.92
6942;BME280;3510;43.200;27.920;2023-01-06T08:49:59;101291.88;;;17.78;40.14
6942;BME280;3510;43.200;27.920;2023-01-06T08:52:26;101279.16;;;17.51;40.84
6942;BME280;3510;43.200;27.920;2023-01-06T08:54:53;101268.28;;;17.40;40.82
6942;BME280;3510;43.200;27.920;2023-01-06T08:57:20;101308.53;;;17.73;41.12
6942;BME280;3510;43.200;27.920;2023-01-06T08:59:47;101284.22;;;17.64;40.84
6942;BME280;3510;43.200;27.920;2023-01-06T09:02:30;101289.91;;;17.74;40.95
6942;BME280;3510;43.200;27.920;2023-01-06T09:04:57;101282.97;;;17.58;40.86
6942;BME280;3510;43.200;27.920;2023-01-06T09:07:25;101204.00;;;17.03;41.27
6942;BME280;3510;43.200;27.920;2023-01-06T09:09:53;101192.47;;;17.22;40.59
6942;BME280;3510;43.200;27.920;2023-01-06T09:12:34;101282.56;;;17.52;41.10
6942;BME280;3510;43.200;27.920;2023-01-06T09:15:03;101319.97;;;17.93;40.65
6942;BME280;3510;43.200;27.920;2023-01-06T09:17:31;101294.06;;;18.13;40.38
6942;BME280;3510;43.200;27.920;2023-01-06T09:19:58;101261.41;;;17.93;40.15
6942;BME280;3510;43.200;27.920;2023-01-06T09:22:25;101315.38;;;18.56;39.10
6942;BME280;3510;43.200;27.920;2023-01-06T09:24:52;101275.75;;;18.05;40.00
6942;BME280;3510;43.200;27.920;2023-01-06T09:27:19;101277.75;;;18.80;39.05
6942;BME280;3510;43.200;27.920;2023-01-06T09:29:47;101289.72;;;18.96;39.12
6942;BME280;3510;43.200;27.920;2023-01-06T09:32:14;101290.94;;;18.73;39.13
6942;BME280;3510;43.200;27.920;2023-01-06T09:34:42;101257.97;;;18.48;39.29
6942;BME280;3510;43.200;27.920;2023-01-06T09:37:09;101310.81;;;18.94;39.01
6942;BME280;3510;43.200;27.920;2023-01-06T09:39:36;101297.03;;;19.05;38.90
6942;BME280;3510;43.200;27.920;2023-01-06T09:44:47;101320.53;;;19.29;35.94
6942;BME280;3510;43.200;27.920;2023-01-06T09:47:18;101318.59;;;20.17;34.08
6942;BME280;3510;43.200;27.920;2023-01-06T09:49:50;101314.06;;;19.65;33.79
6942;BME280;3510;43.200;27.920;2023-01-06T09:52:24;101340.22;;;19.17;33.34
6942;BME280;3510;43.200;27.920;2023-01-06T09:54:55;101308.72;;;19.01;34.12
6942;BME280;3510;43.200;27.920;2023-01-06T09:57:27;101293.53;;;19.18;33.24
6942;BME280;3510;43.200;27.920;2023-01-06T10:00:00;101324.56;;;18.68;34.16
6942;BME280;3510;43.200;27.920;2023-01-06T10:02:34;101264.09;;;19.39;32.80
6942;BME280;3510;43.200;27.920;2023-01-06T10:05:17;101310.41;;;19.01;33.42
6942;BME280;3510;43.200;27.920;2023-01-06T10:07:50;101309.69;;;19.94;32.51
6942;BME280;3510;43.200;27.920;2023-01-06T10:10:33;101294.56;;;19.36;32.98
6942;BME280;3510;43.200;27.920;2023-01-06T10:13:16;101329.72;;;19.56;32.85
6942;BME280;3510;43.200;27.920;2023-01-06T10:15:52;101292.59;;;19.62;32.54
6942;BME280;3510;43.200;27.920;2023-01-06T10:18:31;101318.50;;;19.08;33.45
6942;BME280;3510;43.200;27.920;2023-01-06T10:21:14;101307.53;;;19.85;31.91
6942;BME280;3510;43.200;27.920;2023-01-06T10:24:15;101277.56;;;19.82;31.32
6942;BME280;3510;43.200;27.920;2023-01-06T10:26:49;101312.91;;;19.75;32.21
6942;BME280;3510;43.200;27.920;2023-01-06T10:29:17;101294.44;;;19.64;31.99
6942;BME280;3510;43.200;27.920;2023-01-06T10:31:47;101310.09;;;20.01;31.50
6942;BME280;3510;43.200;27.920;2023-01-06T10:34:18;101319.25;;;19.81;31.70
6942;BME280;3510;43.200;27.920;2023-01-06T10:36:52;101289.81;;;20.04;31.10
6942;BME280;3510;43.200;27.920;2023-01-06T10:39:23;101312.06;;;20.38;30.90
6942;BME280;3510;43.200;27.920;2023-01-06T10:42:02;101345.69;;;19.23;32.45
6942;BME280;3510;43.200;27.920;2023-01-06T10:44:47;101295.81;;;19.89;31.48
6942;BME280;3510;43.200;27.920;2023-01-06T10:47:22;101313.75;;;19.90;31.42
6942;BME280;3510;43.200;27.920;2023-01-06T10:49:50;101336.53;;;20.02;31.24
6942;BME280;3510;43.200;27.920;2023-01-06T10:52:20;101265.25;;;20.23;30.97
6942;BME280;3510;43.200;27.920;2023-01-06T10:54:49;101318.34;;;20.12;31.13
6942;BME280;3510;43.200;27.920;2023-01-06T10:57:21;101337.03;;;20.11;31.07
6942;BME280;3510;43.200;27.920;2023-01-06T11:00:12;101327.88;;;19.69;31.97
6942;BME280;3510;43.200;27.920;2023-01-06T11:02:44;101337.78;;;20.25;31.15
6942;BME280;3510;43.200;27.920;2023-01-06T11:05:13;101310.16;;;20.34;31.04
6942;BME280;3510;43.200;27.920;2023-01-06T11:07:47;101320.22;;;20.47;30.47
6942;BME280;3510;43.200;27.920;2023-01-06T11:10:24;101336.03;;;19.93;31.11
6942;BME280;3510;43.200;27.920;2023-01-06T11:12:52;101305.59;;;19.81;30.81
6942;BME280;3510;43.200;27.920;2023-01-06T11:15:21;101318.84;;;19.74;31.22
6942;BME280;3510;43.200;27.920;2023-01-06T11:17:51;101333.53;;;19.78;30.55
6942;BME280;3510;43.200;27.920;2023-01-06T11:20:29;101309.44;;;19.89;30.73
6942;BME280;3510;43.200;27.920;2023-01-06T11:23:18;101342.81;;;20.54;29.66
6942;BME280;3510;43.200;27.920;2023-01-06T11:25:59;101328.22;;;20.53;29.92
6942;BME280;3510;43.200;27.920;2023-01-06T11:28:27;101327.09;;;20.48;29.85
6942;BME280;3510;43.200;27.920;2023-01-06T11:30:57;101296.91;;;20.25;29.16
6942;BME280;3510;43.200;27.920;2023-01-06T11:33:28;101341.16;;;20.40;29.45
6942;BME280;3510;43.200;27.920;2023-01-06T11:35:56;101352.78;;;21.17;28.39
6942;BME280;3510;43.200;27.920;2023-01-06T11:38:30;101333.44;;;20.71;28.92
6942;BME280;3510;43.200;27.920;2023-01-06T11:40:57;101344.66;;;20.42;28.80
6942;BME280;3510;43.200;27.920;2023-01-06T11:43:28;101355.09;;;20.78;28.64
6942;BME280;3510;43.200;27.920;2023-01-06T11:45:58;101306.09;;;20.54;28.43
6942;BME280;3510;43.200;27.920;2023-01-06T11:48:29;101352.34;;;20.42;28.48
6942;BME280;3510;43.200;27.920;2023-01-06T11:50:59;101386.28;;;19.33;29.10
6942;BME280;3510;43.200;27.920;2023-01-06T11:53:26;101376.25;;;20.12;28.44
6942;BME280;3510;43.200;27.920;2023-01-06T11:55:57;101348.56;;;20.36;27.64
6942;BME280;3510;43.200;27.920;2023-01-06T11:58:36;101364.66;;;21.15;27.21
6942;BME280;3510;43.200;27.920;2023-01-06T12:01:09;101371.09;;;21.41;26.71
6942;BME280;3510;43.200;27.920;2023-01-06T12:03:40;101342.69;;;20.53;27.73
6942;BME280;3510;43.200;27.920;2023-01-06T12:06:18;101304.59;;;21.26;26.48
6942;BME280;3510;43.200;27.920;2023-01-06T12:08:52;101390.59;;;20.56;27.23
6942;BME280;3510;43.200;27.920;2023-01-06T12:11:33;101344.50;;;20.39;27.06
6942;BME280;3510;43.200;27.920;2023-01-06T12:14:04;101328.06;;;20.83;26.46
6942;BME280;3510;43.200;27.920;2023-01-06T12:16:36;101331.97;;;21.27;26.46
6942;BME280;3510;43.200;27.920;2023-01-06T12:19:09;101368.19;;;21.00;27.21
6942;BME280;3510;43.200;27.920;2023-01-06T12:21:39;101371.50;;;21.16;26.55
6942;BME280;3510;43.200;27.920;2023-01-06T12:24:12;101382.78;;;20.38;28.07
6942;BME280;3510;43.200;27.920;2023-01-06T12:26:42;101377.19;;;21.61;26.81
6942;BME280;3510;43.200;27.920;2023-01-06T12:29:15;101368.22;;;21.35;26.90
6942;BME280;3510;43.200;27.920;2023-01-06T12:31:50;101324.84;;;21.38;26.89
6942;BME280;3510;43.200;27.920;2023-01-06T12:34:21;101358.88;;;21.53;26.80
6942;BME280;3510;43.200;27.920;2023-01-06T12:36:55;101291.00;;;21.27;26.65
6942;BME280;3510;43.200;27.920;2023-01-06T12:39:29;101360.94;;;21.60;26.67
6942;BME280;3510;43.200;27.920;2023-01-06T12:42:04;101375.66;;;21.82;26.75
6942;BME280;3510;43.200;27.920;2023-01-06T12:44:40;101360.34;;;20.01;28.33
6942;BME280;3510;43.200;27.920;2023-01-06T12:47:15;101371.38;;;20.80;28.12
6942;BME280;3510;43.200;27.920;2023-01-06T12:49:48;101360.34;;;20.48;28.22
6942;BME280;3510;43.200;27.920;2023-01-06T12:52:23;101367.41;;;20.85;28.29
6942;BME280;3510;43.200;27.920;2023-01-06T12:54:52;101397.63;;;20.76;28.40
6942;BME280;3510;43.200;27.920;2023-01-06T12:57:40;101403.06;;;20.66;28.89
6942;BME280;3510;43.200;27.920;2023-01-06T13:00:21;101399.78;;;21.01;28.07
6942;BME280;3510;43.200;27.920;2023-01-06T13:03:05;101403.84;;;21.14;27.90
6942;BME280;3510;43.200;27.920;2023-01-06T13:05:53;101374.41;;;20.40;29.07
6942;BME280;3510;43.200;27.920;2023-01-06T13:08:32;101399.31;;;20.92;28.48
6942;BME280;3510;43.200;27.920;2023-01-06T13:11:15;101411.56;;;21.32;28.52
6942;BME280;3510;43.200;27.920;2023-01-06T13:13:55;101373.06;;;19.55;30.81
6942;BME280;3510;43.200;27.920;2023-01-06T13:16:31;101423.50;;;20.35;30.06
6942;BME280;3510;43.200;27.920;2023-01-06T13:19:09;101414.84;;;20.47;29.99
6942;BME280;3510;43.200;27.920;2023-01-06T13:21:42;101418.59;;;19.92;30.87
6942;BME280;3510;43.200;27.920;2023-01-06T13:24:39;101426.47;;;20.42;29.93
6942;BME280;3510;43.200;27.920;2023-01-06T13:27:34;101393.47;;;19.99;30.47
6942;BME280;3510;43.200;27.920;2023-01-06T13:30:14;101390.13;;;20.00;30.51
6942;BME280;3510;43.200;27.920;2023-01-06T13:33:10;101351.34;;;19.47;30.51
6942;BME280;3510;43.200;27.920;2023-01-06T13:35:56;101435.88;;;20.27;30.17
6942;BME280;3510;43.200;27.920;2023-01-06T13:41:24;101422.63;;;20.34;29.88
6942;BME280;3510;43.200;27.920;2023-01-06T13:43:53;101423.72;;;20.54;29.63
6942;BME280;3510;43.200;27.920;2023-01-06T13:46:25;101446.97;;;21.91;28.08
6942;BME280;3510;43.200;27.920;2023-01-06T13:48:55;101435.84;;;21.90;28.10
6942;BME280;3510;43.200;27.920;2023-01-06T13:51:28;101458.16;;;22.64;27.17
6942;BME280;3510;43.200;27.920;2023-01-06T13:53:56;101439.19;;;20.72;32.78